createdAt,value
2024-02-21T00:01:24.989Z,16.42
2024-02-21T00:03:51.690Z,16.08
2024-02-21T00:06:18.420Z,15.63
2024-02-21T00:08:45.273Z,15.48
2024-02-21T00:11:12.074Z,14.95
2024-02-21T00:13:38.936Z,13.15
2024-02-21T00:16:05.730Z,12.80
2024-02-21T00:18:32.503Z,12.63
2024-02-21T00:20:59.301Z,13.43
2024-02-21T00:23:25.985Z,11.93
2024-02-21T00:25:52.693Z,11.50
2024-02-21T00:28:19.545Z,12.10
2024-02-21T00:30:46.291Z,13.43
2024-02-21T00:33:13.393Z,12.38
2024-02-21T00:35:40.244Z,13.98
2024-02-21T00:38:06.917Z,14.95
2024-02-21T00:40:33.628Z,13.20
2024-02-21T00:43:00.479Z,11.25
2024-02-21T00:45:27.171Z,10.68
2024-02-21T00:47:53.867Z,14.10
2024-02-21T00:50:20.620Z,11.77
2024-02-21T00:52:47.481Z,11.07
2024-02-21T00:55:14.357Z,11.60
2024-02-21T00:57:41.016Z,16.35
2024-02-21T01:00:09.351Z,11.38
2024-02-21T01:02:36.208Z,12.20
2024-02-21T01:05:03.684Z,10.45
2024-02-21T01:07:30.492Z,9.35
2024-02-21T01:09:57.146Z,10.55
2024-02-21T01:12:23.914Z,10.07
2024-02-21T01:14:50.755Z,9.82
2024-02-21T01:17:17.579Z,10.32
2024-02-21T01:19:44.406Z,10.00
2024-02-21T01:22:11.230Z,10.00
2024-02-21T01:24:37.976Z,10.52
2024-02-21T01:27:04.850Z,9.30
2024-02-21T01:29:31.617Z,7.93
2024-02-21T01:31:58.272Z,8.48
2024-02-21T01:34:25.110Z,8.27
2024-02-21T01:36:51.939Z,7.82
2024-02-21T01:39:18.742Z,8.45
2024-02-21T01:41:45.505Z,8.23
2024-02-21T01:44:12.138Z,8.27
2024-02-21T01:46:38.860Z,8.93
2024-02-21T01:49:06.192Z,8.98
2024-02-21T01:51:33.191Z,9.85
2024-02-21T01:53:59.989Z,9.55
2024-02-21T01:56:26.718Z,10.13
2024-02-21T01:58:53.467Z,11.00
2024-02-21T02:01:22.304Z,10.90
2024-02-21T02:03:49.603Z,10.07
2024-02-21T02:06:16.332Z,11.18
2024-02-21T02:08:43.272Z,10.82
2024-02-21T02:11:10.250Z,10.40
2024-02-21T02:13:37.084Z,10.55
2024-02-21T02:16:05.037Z,11.73
2024-02-21T02:18:31.961Z,10.98
2024-02-21T02:20:58.801Z,12.38
2024-02-21T02:23:34.783Z,11.35
2024-02-21T02:26:04.540Z,11.88
2024-02-21T02:28:31.503Z,11.15
2024-02-21T02:30:58.682Z,9.63
2024-02-21T02:33:25.553Z,9.90
2024-02-21T02:35:52.249Z,10.68
2024-02-21T02:38:19.011Z,9.90
2024-02-21T02:40:45.877Z,8.85
2024-02-21T02:43:12.722Z,9.15
2024-02-21T02:45:39.428Z,8.52
2024-02-21T02:48:06.653Z,8.80
2024-02-21T02:50:33.494Z,7.78
2024-02-21T02:53:00.482Z,8.07
2024-02-21T02:55:27.879Z,8.45
2024-02-21T02:57:55.159Z,9.52
2024-02-21T03:00:22.010Z,10.43
2024-02-21T03:02:50.201Z,9.77
2024-02-21T03:05:18.467Z,9.02
2024-02-21T03:07:45.478Z,8.73
2024-02-21T03:10:12.547Z,8.85
2024-02-21T03:12:39.546Z,9.57
2024-02-21T03:15:06.874Z,11.82
2024-02-21T03:17:35.725Z,11.18
2024-02-21T03:20:06.354Z,9.80
2024-02-21T03:22:34.334Z,11.25
2024-02-21T03:25:01.252Z,11.32
2024-02-21T03:27:27.998Z,9.98
2024-02-21T03:29:54.742Z,9.77
2024-02-21T03:32:21.565Z,9.05
2024-02-21T03:34:48.334Z,8.82
2024-02-21T03:37:15.637Z,8.68
2024-02-21T03:39:42.727Z,9.52
2024-02-21T03:42:09.425Z,7.70
2024-02-21T03:44:36.153Z,8.40
2024-02-21T03:47:03.000Z,7.72
2024-02-21T03:49:30.095Z,7.13
2024-02-21T03:51:57.352Z,8.07
2024-02-21T03:54:24.226Z,8.65
2024-02-21T03:56:51.024Z,8.88
2024-02-21T03:59:17.717Z,8.35
2024-02-21T04:01:44.589Z,9.20
2024-02-21T04:04:12.044Z,8.15
2024-02-21T04:06:47.421Z,7.60
2024-02-21T04:09:14.080Z,7.68
2024-02-21T04:11:40.853Z,8.35
2024-02-21T04:14:08.269Z,8.88
2024-02-21T04:16:35.804Z,7.70
2024-02-21T04:19:03.450Z,9.73
2024-02-21T04:21:30.413Z,6.95
2024-02-21T04:23:57.181Z,7.47
2024-02-21T04:26:23.948Z,7.38
2024-02-21T04:28:50.762Z,9.05
2024-02-21T04:31:17.658Z,7.45
2024-02-21T04:33:44.523Z,8.25
2024-02-21T04:36:11.124Z,7.93
2024-02-21T04:38:37.883Z,8.20
2024-02-21T04:41:04.668Z,7.65
2024-02-21T04:43:31.420Z,11.27
2024-02-21T04:45:58.139Z,7.32
2024-02-21T04:48:24.769Z,7.25
2024-02-21T04:50:51.398Z,7.00
2024-02-21T04:53:18.197Z,7.22
2024-02-21T04:55:45.058Z,7.13
2024-02-21T04:58:11.777Z,7.15
2024-02-21T05:00:38.577Z,8.52
2024-02-21T05:03:05.551Z,9.35
2024-02-21T05:05:32.456Z,7.90
2024-02-21T05:08:01.187Z,7.07
2024-02-21T05:10:28.170Z,8.65
2024-02-21T05:12:54.970Z,10.85
2024-02-21T05:15:21.732Z,16.65
2024-02-21T05:17:48.449Z,11.20
2024-02-21T05:20:15.168Z,11.07
2024-02-21T05:22:41.908Z,11.65
2024-02-21T05:25:09.008Z,10.93
2024-02-21T05:27:36.805Z,10.98
2024-02-21T05:30:04.585Z,8.93
2024-02-21T05:32:31.330Z,7.70
2024-02-21T05:34:59.329Z,7.82
2024-02-21T05:37:26.158Z,9.35
2024-02-21T05:39:53.094Z,8.45
2024-02-21T05:42:20.052Z,8.43
2024-02-21T05:44:46.909Z,8.65
2024-02-21T05:47:16.450Z,8.05
2024-02-21T05:49:43.697Z,8.85
2024-02-21T05:52:10.768Z,14.35
2024-02-21T05:54:40.272Z,10.82
2024-02-21T05:57:08.376Z,15.25
2024-02-21T05:59:36.361Z,26.50
2024-02-21T06:02:05.048Z,15.65
2024-02-21T06:04:31.952Z,9.88
2024-02-21T06:06:58.713Z,9.05
2024-02-21T06:09:25.569Z,8.52
2024-02-21T06:11:52.290Z,15.85
2024-02-21T06:14:19.004Z,9.38
2024-02-21T06:16:45.876Z,9.95
2024-02-21T06:19:15.763Z,8.25
2024-02-21T06:21:42.651Z,8.40
2024-02-21T06:24:09.294Z,7.65
2024-02-21T06:26:35.955Z,15.77
2024-02-21T06:29:03.282Z,20.85
2024-02-21T06:31:30.705Z,19.52
2024-02-21T06:33:57.815Z,15.43
2024-02-21T06:36:24.680Z,10.25
2024-02-21T06:38:51.440Z,19.15
2024-02-21T06:41:19.969Z,14.90
2024-02-21T06:43:47.654Z,21.17
2024-02-21T06:46:27.041Z,16.70
2024-02-21T06:48:54.018Z,12.52
2024-02-21T06:51:20.810Z,12.30
2024-02-21T06:53:47.582Z,12.65
2024-02-21T06:56:14.347Z,13.82
2024-02-21T06:58:41.050Z,9.27
2024-02-21T07:01:08.184Z,19.08
2024-02-21T07:03:34.992Z,15.52
2024-02-21T07:06:02.169Z,31.02
2024-02-21T07:08:28.956Z,9.80
2024-02-21T07:10:56.009Z,12.27
2024-02-21T07:13:24.025Z,18.35
2024-02-21T07:15:50.899Z,43.83
2024-02-21T07:18:18.205Z,17.90
2024-02-21T07:20:45.071Z,12.23
2024-02-21T07:23:11.804Z,13.98
2024-02-21T07:25:38.621Z,12.88
2024-02-21T07:28:05.576Z,9.88
2024-02-21T07:30:32.330Z,9.57
2024-02-21T07:32:59.200Z,11.65
2024-02-21T07:35:26.034Z,10.68
2024-02-21T07:37:52.773Z,10.50
2024-02-21T07:40:19.620Z,16.25
2024-02-21T07:42:50.028Z,10.40
2024-02-21T07:45:19.913Z,11.98
2024-02-21T07:47:47.038Z,18.23
2024-02-21T07:50:13.923Z,19.35
2024-02-21T07:52:40.730Z,14.10
2024-02-21T07:55:07.875Z,15.15
2024-02-21T07:57:34.633Z,14.98
2024-02-21T08:00:01.330Z,13.98
2024-02-21T08:02:28.040Z,17.10
2024-02-21T08:04:54.878Z,7.80
2024-02-21T08:07:21.629Z,9.07
2024-02-21T08:09:48.374Z,7.75
2024-02-21T08:12:14.992Z,15.13
2024-02-21T08:14:41.735Z,7.65
2024-02-21T08:17:08.449Z,6.35
2024-02-21T08:19:35.319Z,8.52
2024-02-21T08:22:02.161Z,21.55
2024-02-21T08:24:28.904Z,12.65
2024-02-21T08:26:55.736Z,12.18
2024-02-21T08:29:22.486Z,9.07
2024-02-21T08:31:49.825Z,9.30
2024-02-21T08:34:16.748Z,12.07
2024-02-21T08:36:44.247Z,15.00
2024-02-21T08:39:11.151Z,5.88
2024-02-21T08:41:50.896Z,7.30
2024-02-21T08:44:24.618Z,13.63
2024-02-21T08:46:51.434Z,7.10
2024-02-21T08:49:18.214Z,6.45
2024-02-21T08:51:45.086Z,4.82
2024-02-21T08:54:11.770Z,7.05
2024-02-21T08:56:38.561Z,5.00
2024-02-21T08:59:05.472Z,7.93
2024-02-21T09:01:32.367Z,19.05
2024-02-21T09:03:59.580Z,4.00
2024-02-21T09:06:26.364Z,5.50
2024-02-21T09:08:53.072Z,6.90
2024-02-21T09:11:19.922Z,4.80
2024-02-21T09:13:46.653Z,4.25
2024-02-21T09:16:13.335Z,4.30
2024-02-21T09:18:40.217Z,5.82
2024-02-21T09:21:07.021Z,5.78
2024-02-21T09:23:33.753Z,6.40
2024-02-21T09:26:04.743Z,6.53
2024-02-21T09:28:31.765Z,4.32
2024-02-21T09:30:58.593Z,4.65
2024-02-21T09:33:31.060Z,6.35
2024-02-21T09:35:59.491Z,4.50
2024-02-21T09:38:26.411Z,3.83
2024-02-21T09:41:09.781Z,3.45
2024-02-21T09:43:36.602Z,3.92
2024-02-21T09:46:03.373Z,2.88
2024-02-21T09:48:48.636Z,2.85
2024-02-21T09:51:15.384Z,2.72
2024-02-21T09:53:44.879Z,3.20
2024-02-21T09:56:15.683Z,3.20
2024-02-21T09:58:42.646Z,5.28
2024-02-21T10:01:20.818Z,3.70
2024-02-21T10:03:52.597Z,3.92
2024-02-21T10:06:19.597Z,3.05
2024-02-21T10:08:53.408Z,3.10
2024-02-21T10:11:27.042Z,3.97
2024-02-21T10:14:09.477Z,3.78
2024-02-21T10:16:36.616Z,3.70
2024-02-21T10:19:04.992Z,3.78
2024-02-21T10:21:31.879Z,3.50
2024-02-21T10:23:58.541Z,3.00
2024-02-21T10:26:25.214Z,3.17
2024-02-21T10:28:53.744Z,3.53
2024-02-21T10:31:29.772Z,3.53
2024-02-21T10:34:00.902Z,3.42
2024-02-21T10:36:28.059Z,3.78
2024-02-21T10:38:57.975Z,2.72
2024-02-21T10:41:25.015Z,2.63
2024-02-21T10:43:56.808Z,3.15
2024-02-21T10:46:25.015Z,3.88
2024-02-21T10:49:13.143Z,4.32
2024-02-21T10:51:44.187Z,2.92
2024-02-21T10:54:26.251Z,3.75
2024-02-21T10:56:53.017Z,3.53
2024-02-21T10:59:19.821Z,2.85
2024-02-21T11:01:46.778Z,4.03
2024-02-21T11:04:13.912Z,3.50
2024-02-21T11:06:41.691Z,3.80
2024-02-21T11:09:09.558Z,4.00
2024-02-21T11:11:41.411Z,4.60
2024-02-21T11:14:09.953Z,6.38
2024-02-21T11:16:43.667Z,5.35
2024-02-21T11:19:12.358Z,4.25
2024-02-21T11:21:39.196Z,4.70
2024-02-21T11:24:06.248Z,5.47
2024-02-21T11:26:33.615Z,5.22
2024-02-21T11:29:06.983Z,3.67
2024-02-21T11:31:46.810Z,3.03
2024-02-21T11:34:13.651Z,1.00
2024-02-21T11:36:50.542Z,1.40
2024-02-21T11:39:21.782Z,4.47
2024-02-21T11:42:09.190Z,6.57
2024-02-21T11:44:36.600Z,2.55
2024-02-21T11:47:04.277Z,2.28
2024-02-21T11:49:31.142Z,2.88
2024-02-21T11:52:02.157Z,3.10
2024-02-21T11:54:29.156Z,2.05
2024-02-21T11:56:55.951Z,3.42
2024-02-21T11:59:23.012Z,5.03
2024-02-21T12:01:50.063Z,5.80
2024-02-21T12:04:18.326Z,9.40
2024-02-21T12:06:46.338Z,12.75
2024-02-21T12:09:18.952Z,5.82
2024-02-21T12:11:46.546Z,5.07
2024-02-21T12:14:17.359Z,3.10
2024-02-21T12:16:49.073Z,3.15
2024-02-21T12:19:18.276Z,2.70
2024-02-21T12:21:45.868Z,2.83
2024-02-21T12:24:25.903Z,3.13
2024-02-21T12:26:55.890Z,2.60
2024-02-21T12:29:22.916Z,3.55
2024-02-21T12:31:49.926Z,3.58
2024-02-21T12:34:18.816Z,3.30
2024-02-21T12:36:49.835Z,4.07
2024-02-21T12:39:17.283Z,2.70
2024-02-21T12:41:45.302Z,3.20
2024-02-21T12:44:15.335Z,3.97
2024-02-21T12:46:42.680Z,3.28
2024-02-21T12:49:09.599Z,4.00
2024-02-21T12:51:36.548Z,6.18
2024-02-21T12:54:05.927Z,7.43
2024-02-21T12:56:32.768Z,5.90
2024-02-21T12:58:59.537Z,7.50
2024-02-21T13:01:28.333Z,5.40
2024-02-21T13:03:55.365Z,5.40
2024-02-21T13:06:22.302Z,7.22
2024-02-21T13:08:49.120Z,4.75
2024-02-21T13:11:15.951Z,4.82
2024-02-21T13:13:42.831Z,6.10
2024-02-21T13:16:09.586Z,5.07
2024-02-21T13:18:39.021Z,5.78
2024-02-21T13:21:08.653Z,8.23
2024-02-21T13:23:35.311Z,6.32
2024-02-21T13:26:02.062Z,5.43
2024-02-21T13:28:29.029Z,5.75
2024-02-21T13:30:55.740Z,5.78
2024-02-21T13:33:22.612Z,4.63
2024-02-21T13:35:49.499Z,4.07
2024-02-21T13:38:16.330Z,4.43
2024-02-21T13:40:43.595Z,3.40
2024-02-21T13:43:11.846Z,4.00
2024-02-21T13:45:39.160Z,3.72
2024-02-21T13:48:12.247Z,4.15
2024-02-21T13:50:44.045Z,4.40
2024-02-21T13:53:12.419Z,5.00
2024-02-21T13:55:39.386Z,5.43
2024-02-21T13:58:06.094Z,5.50
2024-02-21T14:00:35.600Z,5.10
2024-02-21T14:03:02.629Z,4.18
2024-02-21T14:05:29.341Z,3.90
2024-02-21T14:07:56.284Z,4.47
2024-02-21T14:49:42.593Z,4.97
2024-02-21T15:39:39.897Z,5.43
2024-02-21T15:42:07.164Z,11.70
2024-02-21T15:44:33.907Z,22.05
2024-02-21T15:47:00.789Z,21.30
2024-02-21T15:49:27.596Z,9.93
2024-02-21T15:51:55.694Z,7.95
2024-02-21T15:54:25.456Z,7.50
2024-02-21T15:56:54.390Z,6.38
2024-02-21T15:59:21.218Z,14.10
2024-02-21T16:01:47.985Z,7.60
2024-02-21T16:04:16.852Z,5.35
2024-02-21T16:06:45.401Z,5.18
2024-02-21T16:09:12.142Z,10.20
2024-02-21T16:11:38.939Z,6.35
2024-02-21T16:14:06.042Z,6.80
2024-02-21T16:16:33.028Z,8.02
2024-02-21T16:18:59.823Z,17.48
2024-02-21T16:21:28.150Z,27.45
2024-02-21T16:23:55.156Z,13.52
2024-02-21T16:26:21.974Z,9.05
2024-02-21T16:28:49.156Z,7.75
2024-02-21T16:31:16.067Z,17.83
2024-02-21T16:33:42.954Z,26.45
2024-02-21T16:36:09.948Z,12.75
2024-02-21T16:38:42.576Z,17.20
2024-02-21T16:41:09.430Z,8.15
2024-02-21T16:43:36.285Z,5.63
2024-02-21T16:46:03.001Z,5.97
2024-02-21T16:48:31.137Z,6.20
2024-02-21T16:51:01.074Z,5.93
2024-02-21T16:53:28.688Z,6.13
2024-02-21T16:55:55.738Z,6.55
2024-02-21T16:58:22.624Z,7.00
2024-02-21T17:00:49.636Z,7.07
2024-02-21T17:03:21.284Z,7.50
2024-02-21T17:05:54.675Z,7.93
2024-02-21T17:08:24.800Z,6.88
2024-02-21T17:10:51.924Z,12.52
2024-02-21T17:13:18.755Z,25.63
2024-02-21T17:15:45.606Z,24.27
2024-02-21T17:18:12.331Z,27.50
2024-02-21T17:20:39.105Z,29.92
2024-02-21T17:23:06.505Z,28.27
2024-02-21T17:25:33.276Z,25.40
2024-02-21T17:27:59.953Z,26.13
2024-02-21T17:30:26.729Z,24.50
2024-02-21T17:32:53.649Z,25.45
2024-02-21T17:35:20.554Z,29.02
2024-02-21T17:37:47.225Z,28.77
2024-02-21T17:40:14.400Z,28.42
2024-02-21T17:42:41.168Z,23.15
2024-02-21T17:45:08.497Z,24.23
2024-02-21T17:47:35.276Z,16.45
2024-02-21T17:50:02.592Z,22.55
2024-02-21T17:52:30.589Z,22.92
2024-02-21T17:55:00.891Z,20.95
2024-02-21T17:57:27.580Z,19.27
2024-02-21T17:59:54.800Z,17.88
2024-02-21T18:02:25.149Z,14.38
2024-02-21T18:04:52.647Z,12.05
2024-02-21T18:07:21.887Z,18.50
2024-02-21T18:09:51.850Z,38.85
2024-02-21T18:12:18.715Z,13.93
2024-02-21T18:14:45.520Z,8.30
2024-02-21T18:17:12.648Z,11.88
2024-02-21T18:19:39.536Z,13.23
2024-02-21T18:22:06.401Z,22.42
2024-02-21T18:24:33.132Z,27.17
2024-02-21T18:27:01.051Z,22.67
2024-02-21T18:29:34.883Z,21.83
2024-02-21T18:32:06.520Z,63.15
2024-02-21T18:34:35.463Z,38.65
2024-02-21T18:37:02.953Z,24.45
2024-02-21T18:39:29.544Z,21.80
2024-02-21T18:41:57.941Z,27.75
2024-02-21T18:44:24.732Z,28.65
2024-02-21T18:46:51.864Z,28.15
2024-02-21T18:49:18.998Z,29.95
2024-02-21T18:51:45.685Z,32.83
2024-02-21T18:54:12.698Z,31.30
2024-02-21T18:56:39.424Z,25.10
2024-02-21T18:59:06.164Z,23.52
2024-02-21T19:01:33.021Z,36.92
2024-02-21T19:03:59.964Z,31.67
2024-02-21T19:06:26.708Z,28.08
2024-02-21T19:08:53.464Z,26.90
2024-02-21T19:11:20.254Z,24.63
2024-02-21T19:13:46.939Z,20.75
2024-02-21T19:16:15.551Z,22.48
2024-02-21T19:18:43.684Z,29.02
2024-02-21T19:21:10.446Z,25.42
2024-02-21T19:23:40.402Z,35.03
2024-02-21T19:26:10.443Z,89.30
2024-02-21T19:28:37.868Z,41.97
2024-02-21T19:31:05.979Z,37.85
2024-02-21T19:33:32.690Z,27.60
2024-02-21T19:36:01.109Z,20.02
2024-02-21T19:38:28.624Z,14.50
2024-02-21T19:40:55.641Z,12.60
2024-02-21T19:43:24.167Z,9.80
2024-02-21T19:45:51.130Z,10.20
2024-02-21T19:48:19.813Z,11.30
2024-02-21T19:50:46.942Z,19.77
2024-02-21T19:53:14.314Z,19.30
2024-02-21T19:55:41.431Z,11.95
2024-02-21T19:58:08.147Z,16.52
2024-02-21T20:00:34.911Z,25.17
2024-02-21T20:03:01.772Z,25.75
2024-02-21T20:05:28.677Z,17.42
2024-02-21T20:07:55.699Z,34.97
2024-02-21T20:10:22.867Z,16.17
2024-02-21T20:12:50.112Z,20.80
2024-02-21T20:15:17.132Z,22.65
2024-02-21T20:17:47.035Z,26.15
2024-02-21T20:20:14.701Z,24.50
2024-02-21T20:22:43.524Z,19.17
2024-02-21T20:25:10.765Z,47.88
2024-02-21T20:27:38.308Z,22.77
2024-02-21T20:30:06.742Z,15.48
2024-02-21T20:32:33.681Z,15.77
2024-02-21T20:35:00.791Z,28.23
2024-02-21T20:40:10.037Z,14.73
2024-02-21T20:42:36.922Z,10.65
2024-02-21T20:45:03.835Z,8.25
2024-02-21T20:47:30.933Z,8.32
2024-02-21T20:49:59.729Z,8.57
2024-02-21T20:52:27.243Z,9.32
2024-02-21T20:54:54.117Z,8.73
2024-02-21T20:57:20.836Z,8.02
2024-02-21T20:59:47.511Z,7.03
2024-02-21T21:02:14.216Z,7.13
2024-02-21T21:04:41.043Z,6.60
2024-02-21T21:07:08.376Z,17.23
2024-02-21T21:09:37.417Z,7.03
2024-02-21T21:12:07.040Z,8.35
2024-02-21T21:14:33.983Z,11.40
2024-02-21T21:17:04.822Z,10.23
2024-02-21T21:19:32.061Z,6.68
2024-02-21T21:22:01.342Z,5.95
2024-02-21T21:24:28.272Z,5.47
2024-02-21T21:26:54.987Z,5.80
2024-02-21T21:29:22.394Z,6.93
2024-02-21T21:31:49.314Z,6.20
2024-02-21T21:34:16.199Z,7.68
2024-02-21T21:36:43.042Z,3.40
2024-02-21T21:39:09.807Z,2.60
2024-02-21T21:41:36.556Z,2.38
2024-02-21T21:44:03.396Z,2.70
2024-02-21T21:46:30.450Z,2.22
2024-02-21T21:48:57.323Z,2.83
2024-02-21T21:51:28.522Z,2.30
2024-02-21T21:53:55.341Z,2.25
2024-02-21T21:56:22.052Z,2.08
2024-02-21T21:58:48.836Z,1.45
2024-02-21T22:01:15.870Z,1.55
2024-02-21T22:03:42.642Z,1.60
2024-02-21T22:06:11.302Z,1.50
2024-02-21T22:08:38.341Z,1.48
2024-02-21T22:11:09.556Z,1.33
2024-02-21T22:13:36.334Z,1.40
2024-02-21T22:16:03.315Z,1.38
2024-02-21T22:18:33.656Z,1.40
2024-02-21T22:21:00.905Z,1.63
2024-02-21T22:23:27.606Z,1.17
2024-02-21T22:25:54.451Z,1.38
2024-02-21T22:28:21.255Z,1.52
2024-02-21T22:30:47.996Z,1.35
2024-02-21T22:33:14.739Z,1.60
2024-02-21T22:35:43.663Z,3.08
2024-02-21T22:38:10.473Z,2.10
2024-02-21T22:40:37.680Z,1.77
2024-02-21T22:43:04.611Z,1.67
2024-02-21T22:45:31.219Z,1.63
2024-02-21T22:47:57.959Z,1.70
2024-02-21T22:50:24.750Z,1.73
2024-02-21T22:52:51.704Z,3.38
2024-02-21T22:55:18.379Z,2.90
2024-02-21T22:57:44.975Z,2.22
2024-02-21T23:00:16.565Z,2.42
2024-02-21T23:02:44.230Z,2.20
2024-02-21T23:05:11.247Z,1.70
2024-02-21T23:07:38.154Z,2.10
2024-02-21T23:10:05.481Z,3.58
2024-02-21T23:12:33.409Z,1.67
2024-02-21T23:15:00.080Z,1.60
2024-02-21T23:17:26.720Z,1.60
2024-02-21T23:19:53.390Z,1.40
2024-02-21T23:22:20.469Z,1.25
2024-02-21T23:24:47.318Z,1.38
2024-02-21T23:27:14.142Z,1.60
2024-02-21T23:29:40.779Z,1.77
2024-02-21T23:32:07.574Z,1.83
2024-02-21T23:34:35.249Z,2.58
2024-02-21T23:37:02.100Z,2.55
2024-02-21T23:39:31.160Z,2.60
2024-02-21T23:41:58.902Z,3.03
2024-02-21T23:44:25.834Z,3.30
2024-02-21T23:46:52.682Z,2.53
2024-02-21T23:49:19.567Z,3.50
2024-02-21T23:51:46.465Z,3.40
2024-02-21T23:54:13.149Z,4.03
2024-02-21T23:56:43.784Z,3.90
2024-02-21T23:59:11.063Z,4.20
